Time;durP1;ratioP1;P1;durP2;ratioP2;P2;SDS_P1;SDS_P2;PMS_P1;PMS_P2;Temp;Humidity;BMP_temperature;BMP_pressure;BME280_temperature;BME280_humidity;BME280_pressure;Samples;Min_cycle;Max_cycle;Signal;HPM_P1;HPM_P2
2022/11/05 00:10:51;;;;;;;;;;;2.80;99.90;;;;;;5055969;28;19955;-70
2022/11/05 00:19:05;;;;;;;;;;;2.90;99.90;;;;;;5055519;28;19919;-70
2022/11/05 00:26:59;;;;;;;;;;;2.80;99.90;;;;;;5054727;28;19920;-70
2022/11/05 00:29:24;;;;;;;;;;;2.90;99.90;;;;;;5054972;28;19913;-70
2022/11/05 00:31:50;;;;;;;;;;;2.90;99.90;;;;;;5054975;28;19935;-70
2022/11/05 00:34:15;;;;;;;;;;;2.90;99.90;;;;;;5054781;28;20292;-70
2022/11/05 00:36:41;;;;;;;;;;;2.90;99.90;;;;;;5055124;28;20372;-70
2022/11/05 00:39:06;;;;;;;;;;;2.90;99.90;;;;;;5054794;28;19927;-70
2022/11/05 00:41:32;;;;;;;;;;;2.90;99.90;;;;;;5054979;28;19913;-70
2022/11/05 00:46:41;;;;;;;;;;;2.90;99.90;;;;;;5055257;28;19934;-70
2022/11/05 00:52:54;;;;;;;;;;;2.90;99.90;;;;;;5055193;28;19920;-70
2022/11/05 00:54:36;;;;;;;;;;;3.00;99.90;;;;;;5054258;28;19916;-70
2022/11/05 00:57:02;;;;;;;;;;;3.00;99.90;;;;;;5054421;28;20351;-70
2022/11/05 00:59:27;;;;;;;;;;;3.00;99.90;;;;;;5054628;28;20324;-70
2022/11/05 01:01:53;;;;;;;;;;;3.00;99.90;;;;;;5054928;28;19920;-70
2022/11/05 01:04:18;;;;;;;;;;;3.00;99.90;;;;;;5054484;28;19913;-70
2022/11/05 01:06:44;;;;;;;;;;;3.00;99.90;;;;;;5054558;28;19920;-70
2022/11/05 01:09:09;;;;;;;;;;;3.00;99.90;;;;;;5054204;28;19913;-69
2022/11/05 01:11:35;;;;;;;;;;;3.10;99.90;;;;;;5036262;28;19960;-70
2022/11/05 01:14:06;;;;;;;;;;;3.10;99.90;;;;;;5036051;28;19970;-70
2022/11/05 01:16:32;;;;;;;;;;;3.10;99.90;;;;;;5036450;28;20313;-70
2022/11/05 01:18:58;;;;;;;;;;;3.10;99.90;;;;;;5019611;28;19968;-70
2022/11/05 01:21:23;;;;;;;;;;;3.00;99.90;;;;;;5036484;28;19949;-70
2022/11/05 01:23:49;;;;;;;;;;;3.10;99.90;;;;;;5054750;28;19913;-69
2022/11/05 01:26:14;;;;;;;;;;;3.10;99.90;;;;;;5054232;28;19913;-70
2022/11/05 01:28:40;;;;;;;;;;;3.00;99.90;;;;;;5054147;28;19913;-70
2022/11/05 01:31:05;;;;;;;;;;;3.10;99.90;;;;;;5019604;28;20365;-70
2022/11/05 01:33:31;;;;;;;;;;;3.10;99.90;;;;;;5035914;28;20262;-70
2022/11/05 01:35:57;;;;;;;;;;;3.10;99.90;;;;;;5053742;28;20292;-70
2022/11/05 01:38:22;;;;;;;;;;;3.10;99.90;;;;;;5053623;28;20281;-70
2022/11/05 01:40:48;;;;;;;;;;;3.10;99.90;;;;;;5035969;28;19920;-70
2022/11/05 01:43:17;;;;;;;;;;;3.10;99.90;;;;;;5053859;28;20281;-70
2022/11/05 01:45:43;;;;;;;;;;;3.00;99.90;;;;;;5053930;28;19916;-70
2022/11/05 01:48:12;;;;;;;;;;;3.00;99.90;;;;;;5053838;28;20250;-70
2022/11/05 01:50:55;;;;;;;;;;;3.00;99.90;;;;;;5053562;28;19913;-69
2022/11/05 01:53:36;;;;;;;;;;;3.00;99.90;;;;;;5053409;28;20328;-70
2022/11/05 01:56:07;;;;;;;;;;;2.90;99.90;;;;;;5053506;28;19909;-69
2022/11/05 01:58:36;;;;;;;;;;;2.90;99.90;;;;;;5035549;28;19916;-69
2022/11/05 02:01:01;;;;;;;;;;;2.90;99.90;;;;;;5035589;28;19916;-69
2022/11/05 02:03:27;;;;;;;;;;;2.80;99.90;;;;;;5053474;28;19917;-69
2022/11/05 02:05:54;;;;;;;;;;;2.70;99.90;;;;;;5053702;28;19955;-70
2022/11/05 02:08:24;;;;;;;;;;;2.70;99.90;;;;;;5053385;28;19908;-69
2022/11/05 02:10:50;;;;;;;;;;;2.70;99.90;;;;;;5053882;28;19916;-69
2022/11/05 02:13:16;;;;;;;;;;;2.70;99.90;;;;;;5053099;28;19925;-70
2022/11/05 02:15:55;;;;;;;;;;;2.70;99.90;;;;;;5053566;28;20000;-70
2022/11/05 02:18:33;;;;;;;;;;;2.80;99.90;;;;;;5053540;28;20384;-69
2022/11/05 02:21:02;;;;;;;;;;;2.80;99.90;;;;;;5053565;28;19916;-70
2022/11/05 02:23:28;;;;;;;;;;;2.80;99.90;;;;;;5053200;28;19915;-70
2022/11/05 02:26:12;;;;;;;;;;;2.90;99.90;;;;;;5053222;28;20340;-70
2022/11/05 02:28:53;;;;;;;;;;;2.90;99.90;;;;;;5035351;28;20038;-70
2022/11/05 02:31:32;;;;;;;;;;;3.00;99.90;;;;;;5053141;28;19909;-70
2022/11/05 02:34:21;;;;;;;;;;;3.00;99.90;;;;;;5035124;28;19913;-70
2022/11/05 02:36:47;;;;;;;;;;;3.00;99.90;;;;;;5024614;28;19986;-70
2022/11/05 02:39:22;;;;;;;;;;;2.90;99.90;;;;;;5053397;28;20315;-70
2022/11/05 02:41:54;;;;;;;;;;;2.90;99.90;;;;;;5053396;28;19909;-70
2022/11/05 02:44:19;;;;;;;;;;;2.90;99.90;;;;;;5052992;28;20369;-70
2022/11/05 02:46:52;;;;;;;;;;;2.90;99.90;;;;;;5052947;28;20002;-70
2022/11/05 02:49:34;;;;;;;;;;;2.90;99.90;;;;;;5055159;28;19944;-70
2022/11/05 02:52:19;;;;;;;;;;;3.00;99.90;;;;;;5057042;28;19974;-70
2022/11/05 02:54:50;;;;;;;;;;;3.00;99.90;;;;;;5057080;28;19932;-70
2022/11/05 02:57:18;;;;;;;;;;;3.00;99.90;;;;;;5057041;28;19917;-70
2022/11/05 02:59:43;;;;;;;;;;;3.10;99.90;;;;;;5056654;28;19916;-70
2022/11/05 03:02:09;;;;;;;;;;;3.00;99.90;;;;;;5056547;28;19917;-69
2022/11/05 03:04:34;;;;;;;;;;;3.10;99.90;;;;;;5056579;28;19913;-70
2022/11/05 03:07:00;;;;;;;;;;;3.10;99.90;;;;;;5056529;28;19913;-70
2022/11/05 03:09:44;;;;;;;;;;;3.10;99.90;;;;;;5056520;28;20324;-70
2022/11/05 03:12:15;;;;;;;;;;;3.00;99.90;;;;;;5056524;28;19912;-70
2022/11/05 03:14:41;;;;;;;;;;;3.00;99.90;;;;;;5056480;28;19913;-69
2022/11/05 03:17:18;;;;;;;;;;;3.00;99.90;;;;;;5056372;28;19915;-70
2022/11/05 03:19:56;;;;;;;;;;;3.00;99.90;;;;;;5056874;28;19909;-70
2022/11/05 03:22:33;;;;;;;;;;;3.00;99.90;;;;;;5056468;28;19909;-69
2022/11/05 03:25:05;;;;;;;;;;;3.00;99.90;;;;;;5038359;28;19909;-70
2022/11/05 03:27:33;;;;;;;;;;;3.10;99.90;;;;;;5056706;28;19987;-70
2022/11/05 03:30:00;;;;;;;;;;;3.00;99.90;;;;;;5056089;28;19951;-70
2022/11/05 03:32:28;;;;;;;;;;;3.10;99.90;;;;;;5055936;28;19959;-69
2022/11/05 03:35:03;;;;;;;;;;;3.10;99.90;;;;;;5055993;28;20017;-70
2022/11/05 03:37:31;;;;;;;;;;;3.10;99.90;;;;;;5055902;28;20012;-70
2022/11/05 03:39:59;;;;;;;;;;;3.10;99.90;;;;;;5055886;28;20003;-69
2022/11/05 03:42:26;;;;;;;;;;;3.10;99.90;;;;;;5055829;28;19909;-70
2022/11/05 03:44:54;;;;;;;;;;;3.10;99.90;;;;;;5055798;28;20370;-70
2022/11/05 03:47:23;;;;;;;;;;;3.10;99.90;;;;;;5055855;28;19908;-70
2022/11/05 03:49:57;;;;;;;;;;;3.10;99.90;;;;;;5055743;28;20373;-70
2022/11/05 03:52:26;;;;;;;;;;;3.10;99.90;;;;;;5055840;28;19909;-70
2022/11/05 03:54:52;;;;;;;;;;;3.10;99.90;;;;;;5055715;28;19916;-70
2022/11/05 03:57:17;;;;;;;;;;;3.10;99.90;;;;;;5055593;28;19909;-70
2022/11/05 03:59:44;;;;;;;;;;;3.00;99.90;;;;;;5055448;28;19909;-70
2022/11/05 04:02:10;;;;;;;;;;;3.00;99.90;;;;;;5055700;28;20239;-70
2022/11/05 04:04:36;;;;;;;;;;;3.00;99.90;;;;;;5055394;28;19919;-70
2022/11/05 04:15:14;;;;;;;;;;;2.90;99.90;;;;;;5055897;28;20024;-70
2022/11/05 04:17:40;;;;;;;;;;;2.90;99.90;;;;;;5055268;28;19978;-70
2022/11/05 04:25:41;;;;;;;;;;;2.80;99.90;;;;;;5055426;28;19958;-70
2022/11/05 04:28:06;;;;;;;;;;;2.80;99.90;;;;;;5055015;28;19912;-70
2022/11/05 04:30:32;;;;;;;;;;;2.80;99.90;;;;;;5054980;28;19917;-70
2022/11/05 04:32:59;;;;;;;;;;;2.80;99.90;;;;;;5037122;28;19986;-70
2022/11/05 04:35:25;;;;;;;;;;;2.90;99.90;;;;;;5055680;28;19909;-70
2022/11/05 04:37:50;;;;;;;;;;;2.90;99.90;;;;;;5036893;28;19912;-70
2022/11/05 04:40:16;;;;;;;;;;;2.90;99.90;;;;;;5054783;28;19913;-70
2022/11/05 04:42:41;;;;;;;;;;;2.90;99.90;;;;;;5054698;28;19912;-70
2022/11/05 04:45:07;;;;;;;;;;;2.90;99.90;;;;;;5054717;28;19935;-70
2022/11/05 04:47:33;;;;;;;;;;;2.90;99.90;;;;;;5054900;28;20254;-70
2022/11/05 04:49:58;;;;;;;;;;;2.90;99.90;;;;;;5054632;28;19936;-70
2022/11/05 04:52:24;;;;;;;;;;;3.00;99.90;;;;;;5054414;28;19913;-70
2022/11/05 04:54:49;;;;;;;;;;;3.00;99.90;;;;;;5054483;28;19913;-70
2022/11/05 04:57:15;;;;;;;;;;;2.90;99.90;;;;;;5036546;28;19913;-70
2022/11/05 04:59:40;;;;;;;;;;;2.90;99.90;;;;;;5054922;28;19912;-70
2022/11/05 05:02:06;;;;;;;;;;;2.90;99.90;;;;;;5054285;28;19921;-69
2022/11/05 05:04:31;;;;;;;;;;;2.90;99.90;;;;;;5036828;28;19920;-70
2022/11/05 05:06:57;;;;;;;;;;;2.90;99.90;;;;;;5054489;28;19919;-70
2022/11/05 05:09:22;;;;;;;;;;;2.90;99.90;;;;;;5054415;28;19920;-70
2022/11/05 05:11:48;;;;;;;;;;;2.90;99.90;;;;;;5053552;28;19908;-70
2022/11/05 05:14:14;;;;;;;;;;;2.90;99.90;;;;;;5054305;28;19962;-70
2022/11/05 05:16:39;;;;;;;;;;;2.90;99.90;;;;;;5036238;28;19920;-70
2022/11/05 05:19:05;;;;;;;;;;;2.80;99.90;;;;;;5054083;28;19913;-70
2022/11/05 05:21:39;;;;;;;;;;;2.80;99.90;;;;;;5054281;28;19919;-70
2022/11/05 05:24:07;;;;;;;;;;;2.80;99.90;;;;;;5053946;28;19909;-70
2022/11/05 05:26:34;;;;;;;;;;;2.90;99.90;;;;;;5036063;28;19944;-70
2022/11/05 05:28:59;;;;;;;;;;;2.80;99.90;;;;;;5054123;28;20020;-70
2022/11/05 05:31:25;;;;;;;;;;;2.90;99.90;;;;;;5053845;28;20392;-70
2022/11/05 05:33:54;;;;;;;;;;;2.90;99.90;;;;;;5053707;28;19970;-70
2022/11/05 05:36:20;;;;;;;;;;;2.90;99.90;;;;;;5054048;28;20258;-69
2022/11/05 05:38:46;;;;;;;;;;;2.90;99.90;;;;;;5035832;28;19917;-70
2022/11/05 05:41:12;;;;;;;;;;;2.90;99.90;;;;;;5036346;28;20265;-69
2022/11/05 05:43:37;;;;;;;;;;;2.90;99.90;;;;;;5035643;28;19913;-69
2022/11/05 05:46:03;;;;;;;;;;;2.90;99.90;;;;;;5053906;28;20064;-69
2022/11/05 05:48:29;;;;;;;;;;;2.90;99.90;;;;;;5053463;28;19919;-70
2022/11/05 05:50:59;;;;;;;;;;;2.90;99.90;;;;;;5053579;28;19944;-70
2022/11/05 05:53:25;;;;;;;;;;;2.90;99.90;;;;;;5053426;28;19962;-69
2022/11/05 05:55:52;;;;;;;;;;;3.00;99.90;;;;;;5035600;28;19917;-70
2022/11/05 05:58:17;;;;;;;;;;;3.00;99.90;;;;;;5053749;28;20322;-70
2022/11/05 06:00:43;;;;;;;;;;;3.00;99.90;;;;;;5053501;28;19917;-70
2022/11/05 06:03:08;;;;;;;;;;;3.00;99.90;;;;;;5035531;28;19963;-69
2022/11/05 06:05:34;;;;;;;;;;;3.00;99.90;;;;;;5053763;28;19941;-69
2022/11/05 06:07:59;;;;;;;;;;;2.90;99.90;;;;;;5053441;28;19956;-70
2022/11/05 06:10:25;;;;;;;;;;;2.90;99.90;;;;;;5053708;28;20304;-70
2022/11/05 06:12:51;;;;;;;;;;;2.90;99.90;;;;;;5053182;28;19928;-69
2022/11/05 06:15:16;;;;;;;;;;;2.90;99.90;;;;;;5053305;28;20280;-69
2022/11/05 06:17:43;;;;;;;;;;;3.00;99.90;;;;;;5053897;28;19920;-69
2022/11/05 06:20:09;;;;;;;;;;;3.00;99.90;;;;;;5053288;28;19912;-69
2022/11/05 06:22:34;;;;;;;;;;;2.90;99.90;;;;;;5053237;28;20483;-69
2022/11/05 06:25:00;;;;;;;;;;;2.90;99.90;;;;;;5056691;28;19913;-69
2022/11/05 06:27:27;;;;;;;;;;;3.00;99.90;;;;;;5057804;28;19920;-69
2022/11/05 06:29:52;;;;;;;;;;;3.00;99.90;;;;;;5039367;28;19909;-70
2022/11/05 06:32:18;;;;;;;;;;;3.10;99.90;;;;;;5057336;28;19913;-69
2022/11/05 06:34:43;;;;;;;;;;;3.10;99.90;;;;;;5057722;28;19916;-70
2022/11/05 06:37:09;;;;;;;;;;;3.10;99.90;;;;;;5057388;28;20323;-70
2022/11/05 06:39:35;;;;;;;;;;;3.20;99.90;;;;;;5057682;28;19913;-70
2022/11/05 06:42:00;;;;;;;;;;;3.20;99.90;;;;;;5056979;28;20007;-69
2022/11/05 06:44:26;;;;;;;;;;;3.20;99.90;;;;;;5057274;28;19917;-70
2022/11/05 06:46:52;;;;;;;;;;;3.20;99.90;;;;;;5057135;28;19999;-69
2022/11/05 06:49:17;;;;;;;;;;;3.20;99.90;;;;;;5039083;28;19913;-70
2022/11/05 06:51:43;;;;;;;;;;;3.30;99.90;;;;;;5057132;28;19966;-70
2022/11/05 06:54:08;;;;;;;;;;;3.20;99.90;;;;;;5057160;28;19917;-69
2022/11/05 06:56:34;;;;;;;;;;;3.30;99.90;;;;;;5054341;28;19920;-69
2022/11/05 06:59:00;;;;;;;;;;;3.30;99.90;;;;;;5061415;28;19939;-69
2022/11/05 07:01:25;;;;;;;;;;;3.30;99.90;;;;;;5056974;28;19924;-69
2022/11/05 07:03:51;;;;;;;;;;;3.30;99.90;;;;;;5056506;28;20377;-69
2022/11/05 07:06:16;;;;;;;;;;;3.20;99.90;;;;;;5038672;28;19913;-70
2022/11/05 07:08:42;;;;;;;;;;;3.30;99.90;;;;;;5038599;28;19952;-70
2022/11/05 07:11:07;;;;;;;;;;;3.30;99.90;;;;;;5056510;28;19917;-70
2022/11/05 07:13:33;;;;;;;;;;;3.30;99.90;;;;;;5056231;28;19935;-70
2022/11/05 07:15:58;;;;;;;;;;;3.30;99.90;;;;;;5056657;28;19963;-71
2022/11/05 07:18:24;;;;;;;;;;;3.30;99.90;;;;;;5056332;28;19924;-70
2022/11/05 07:20:50;;;;;;;;;;;3.30;99.90;;;;;;5021906;28;20269;-71
2022/11/05 07:23:15;;;;;;;;;;;3.30;99.90;;;;;;5056299;28;19917;-71
2022/11/05 07:25:41;;;;;;;;;;;3.30;99.90;;;;;;5056227;28;19913;-71
2022/11/05 07:28:07;;;;;;;;;;;3.30;99.90;;;;;;5056533;28;19935;-70
2022/11/05 07:30:34;;;;;;;;;;;3.30;99.90;;;;;;5056155;28;19954;-70
2022/11/05 07:32:59;;;;;;;;;;;3.30;99.90;;;;;;5056234;28;19920;-70
2022/11/05 07:35:25;;;;;;;;;;;3.30;99.90;;;;;;5037679;28;19913;-70
2022/11/05 07:37:52;;;;;;;;;;;3.30;99.90;;;;;;5055886;28;19909;-70
2022/11/05 07:40:18;;;;;;;;;;;3.30;99.90;;;;;;5055914;28;19909;-71
2022/11/05 07:42:45;;;;;;;;;;;3.40;99.90;;;;;;5055979;28;19955;-69
2022/11/05 07:45:11;;;;;;;;;;;3.40;99.90;;;;;;5056796;28;19909;-70
2022/11/05 07:47:50;;;;;;;;;;;3.40;99.90;;;;;;5056346;28;19908;-70
2022/11/05 07:50:17;;;;;;;;;;;3.40;99.90;;;;;;5056071;28;19999;-70
2022/11/05 07:52:43;;;;;;;;;;;3.40;99.90;;;;;;5055662;28;19912;-70
2022/11/05 07:55:09;;;;;;;;;;;3.40;99.90;;;;;;5055969;28;19954;-70
2022/11/05 07:57:41;;;;;;;;;;;3.50;99.90;;;;;;5055933;28;20328;-70
2022/11/05 08:00:08;;;;;;;;;;;3.50;99.90;;;;;;5055836;28;20341;-70
2022/11/05 08:02:34;;;;;;;;;;;3.50;99.90;;;;;;5055532;28;20007;-70
2022/11/05 08:04:59;;;;;;;;;;;3.50;99.90;;;;;;5055491;28;19940;-70
2022/11/05 08:07:25;;;;;;;;;;;3.50;99.90;;;;;;5055502;28;19908;-70
2022/11/05 08:09:50;;;;;;;;;;;3.50;99.90;;;;;;5037622;28;19920;-69
2022/11/05 08:12:16;;;;;;;;;;;3.60;99.90;;;;;;5055201;28;19924;-69
2022/11/05 08:14:41;;;;;;;;;;;3.60;99.90;;;;;;5055266;28;19982;-69
2022/11/05 08:17:07;;;;;;;;;;;3.60;99.90;;;;;;5055294;28;20294;-69
2022/11/05 08:19:32;;;;;;;;;;;3.70;99.90;;;;;;5038265;28;19913;-69
2022/11/05 08:21:58;;;;;;;;;;;3.70;99.90;;;;;;5055130;28;19912;-69
2022/11/05 08:24:23;;;;;;;;;;;3.70;99.90;;;;;;5020763;28;20429;-68
2022/11/05 08:26:49;;;;;;;;;;;3.80;99.90;;;;;;5055600;28;20381;-68
2022/11/05 08:29:14;;;;;;;;;;;3.80;99.90;;;;;;5037164;28;19913;-68
2022/11/05 08:31:40;;;;;;;;;;;3.90;99.90;;;;;;5055248;28;20268;-68
2022/11/05 08:34:06;;;;;;;;;;;3.90;99.90;;;;;;5054744;28;19954;-68
2022/11/05 08:36:33;;;;;;;;;;;3.90;99.90;;;;;;5054866;28;19916;-68
2022/11/05 08:38:58;;;;;;;;;;;4.00;99.90;;;;;;5054736;28;19909;-68
2022/11/05 08:41:24;;;;;;;;;;;4.00;99.90;;;;;;5054767;28;20370;-68
2022/11/05 08:43:49;;;;;;;;;;;4.10;99.90;;;;;;5036995;28;19963;-68
2022/11/05 08:46:15;;;;;;;;;;;4.20;99.90;;;;;;5053909;28;19913;-68
2022/11/05 08:48:40;;;;;;;;;;;4.20;99.90;;;;;;5054660;28;19913;-68
2022/11/05 08:51:06;;;;;;;;;;;4.30;99.90;;;;;;5037074;28;20012;-68
2022/11/05 08:53:31;;;;;;;;;;;4.40;99.90;;;;;;5055147;28;19917;-67
2022/11/05 08:55:57;;;;;;;;;;;4.40;99.90;;;;;;5037035;28;19913;-67
2022/11/05 08:58:24;;;;;;;;;;;4.50;99.90;;;;;;5055074;28;20011;-67
2022/11/05 09:00:49;;;;;;;;;;;4.50;99.90;;;;;;5054906;28;20051;-67
2022/11/05 09:03:15;;;;;;;;;;;4.60;99.90;;;;;;5054331;28;19955;-67
2022/11/05 09:05:41;;;;;;;;;;;4.60;99.90;;;;;;5036389;28;19920;-67
2022/11/05 09:08:08;;;;;;;;;;;4.70;99.90;;;;;;5036734;28;20369;-67
2022/11/05 09:10:34;;;;;;;;;;;4.80;99.90;;;;;;5054510;28;19908;-67
2022/11/05 09:13:00;;;;;;;;;;;4.80;99.90;;;;;;5053998;28;19923;-67
2022/11/05 09:15:25;;;;;;;;;;;4.80;99.90;;;;;;5054057;28;20007;-66
2022/11/05 09:17:51;;;;;;;;;;;4.80;99.90;;;;;;5054402;28;19992;-67
2022/11/05 09:20:16;;;;;;;;;;;4.90;99.90;;;;;;5019770;28;19913;-67
2022/11/05 09:22:42;;;;;;;;;;;4.90;99.90;;;;;;5053988;28;20384;-67
2022/11/05 09:25:08;;;;;;;;;;;4.90;99.90;;;;;;5054296;28;19915;-67
2022/11/05 09:27:34;;;;;;;;;;;4.80;99.90;;;;;;5054228;28;19963;-67
2022/11/05 09:30:00;;;;;;;;;;;4.80;99.90;;;;;;5053978;28;19944;-67
2022/11/05 09:32:25;;;;;;;;;;;4.70;99.90;;;;;;5054247;28;19935;-68
2022/11/05 09:34:51;;;;;;;;;;;4.70;99.90;;;;;;5054113;28;20039;-68
2022/11/05 09:37:16;;;;;;;;;;;4.70;99.90;;;;;;5053790;28;19920;-68
2022/11/05 09:39:42;;;;;;;;;;;4.70;99.90;;;;;;5053800;28;20289;-68
2022/11/05 09:42:08;;;;;;;;;;;4.70;99.90;;;;;;5035853;28;20379;-68
2022/11/05 09:44:49;;;;;;;;;;;4.70;99.90;;;;;;5054192;28;19915;-67
2022/11/05 09:47:18;;;;;;;;;;;4.80;99.90;;;;;;5054278;28;19958;-67
2022/11/05 09:49:47;;;;;;;;;;;4.80;99.90;;;;;;5053615;28;20302;-67
2022/11/05 09:52:15;;;;;;;;;;;4.80;99.90;;;;;;5054130;28;20353;-67
2022/11/05 09:54:41;;;;;;;;;;;4.90;99.90;;;;;;5053788;28;20011;-67
2022/11/05 09:57:10;;;;;;;;;;;4.90;99.90;;;;;;5053438;28;19982;-67
2022/11/05 09:59:47;;;;;;;;;;;4.90;99.90;;;;;;5053598;28;20301;-67
2022/11/05 10:02:31;;;;;;;;;;;4.90;99.90;;;;;;5053406;28;19967;-68
2022/11/05 10:04:58;;;;;;;;;;;5.00;99.90;;;;;;5054097;28;20003;-67
2022/11/05 10:07:25;;;;;;;;;;;5.00;99.90;;;;;;5053486;28;19908;-67
2022/11/05 10:09:54;;;;;;;;;;;5.00;99.90;;;;;;5053398;28;19908;-67
2022/11/05 10:12:23;;;;;;;;;;;5.10;99.90;;;;;;5053425;28;20292;-68
2022/11/05 10:14:57;;;;;;;;;;;5.10;99.90;;;;;;5053273;28;19913;-67
2022/11/05 10:17:24;;;;;;;;;;;5.10;99.90;;;;;;5053683;28;19913;-67
2022/11/05 10:19:57;;;;;;;;;;;5.10;99.90;;;;;;5053550;28;19909;-67
2022/11/05 10:22:23;;;;;;;;;;;5.20;99.90;;;;;;5053284;28;19932;-67
2022/11/05 10:24:49;;;;;;;;;;;5.20;99.90;;;;;;5018956;28;19913;-67
2022/11/05 10:27:23;;;;;;;;;;;5.30;99.90;;;;;;5035395;28;19913;-67
2022/11/05 10:29:49;;;;;;;;;;;5.40;99.90;;;;;;5053470;28;19916;-67
2022/11/05 10:32:22;;;;;;;;;;;5.40;99.90;;;;;;5053703;28;19913;-67
2022/11/05 10:34:48;;;;;;;;;;;5.50;99.90;;;;;;5054310;28;20349;-67
2022/11/05 10:37:14;;;;;;;;;;;5.60;99.90;;;;;;5053014;28;19945;-67
2022/11/05 10:39:40;;;;;;;;;;;5.70;99.90;;;;;;5053746;28;19919;-69
2022/11/05 10:42:12;;;;;;;;;;;5.70;99.90;;;;;;5053290;28;19913;-69
2022/11/05 10:44:49;;;;;;;;;;;5.70;99.90;;;;;;5052502;28;19909;-69
2022/11/05 10:47:27;;;;;;;;;;;5.70;99.90;;;;;;5035204;28;20357;-69
2022/11/05 10:50:00;;;;;;;;;;;5.70;99.90;;;;;;5052904;28;19944;-69
2022/11/05 10:52:45;;;;;;;;;;;5.70;99.90;;;;;;5053501;28;20265;-69
2022/11/05 10:55:23;;;;;;;;;;;5.70;99.90;;;;;;5038877;28;19913;-70
2022/11/05 10:57:49;;;;;;;;;;;5.70;99.90;;;;;;5053270;28;19909;-69
2022/11/05 11:00:15;;;;;;;;;;;5.70;99.90;;;;;;5053454;28;19920;-69
2022/11/05 11:03:09;;;;;;;;;;;5.70;99.90;;;;;;5052779;28;20058;-69
2022/11/05 11:05:36;;;;;;;;;;;5.80;99.90;;;;;;5022127;28;19915;-69
2022/11/05 11:08:11;;;;;;;;;;;5.80;99.90;;;;;;5053139;28;19908;-69
2022/11/05 11:10:41;;;;;;;;;;;5.80;99.90;;;;;;5055099;28;19913;-69
2022/11/05 11:13:17;;;;;;;;;;;5.80;99.90;;;;;;5056207;28;19927;-69
2022/11/05 11:15:43;;;;;;;;;;;5.90;99.90;;;;;;5056767;28;20376;-69
2022/11/05 11:18:29;;;;;;;;;;;5.90;99.90;;;;;;5022053;28;20003;-69
2022/11/05 11:21:04;;;;;;;;;;;5.90;99.90;;;;;;5056583;28;19916;-69
2022/11/05 11:23:34;;;;;;;;;;;6.00;99.90;;;;;;5056266;28;20446;-69
2022/11/05 11:26:00;;;;;;;;;;;6.00;99.90;;;;;;5056288;28;19908;-70
2022/11/05 11:28:34;;;;;;;;;;;6.10;99.90;;;;;;5056225;28;20059;-69
2022/11/05 11:31:03;;;;;;;;;;;6.10;99.90;;;;;;5056116;28;19909;-70
2022/11/05 11:33:30;;;;;;;;;;;6.20;99.90;;;;;;5056513;28;19917;-69
2022/11/05 11:35:56;;;;;;;;;;;6.10;99.90;;;;;;5056395;28;20372;-70
2022/11/05 11:38:23;;;;;;;;;;;6.20;99.90;;;;;;5056633;28;19913;-70
2022/11/05 11:40:49;;;;;;;;;;;6.20;99.90;;;;;;5055988;28;19949;-70
2022/11/05 11:43:28;;;;;;;;;;;6.30;99.90;;;;;;5056237;28;19927;-70
2022/11/05 11:45:54;;;;;;;;;;;6.30;99.90;;;;;;5055826;28;19909;-69
2022/11/05 11:48:26;;;;;;;;;;;6.30;99.90;;;;;;5056449;28;19908;-69
2022/11/05 11:50:52;;;;;;;;;;;6.40;99.90;;;;;;5055876;28;19932;-69
2022/11/05 11:53:20;;;;;;;;;;;6.40;99.90;;;;;;5037761;28;20361;-70
2022/11/05 11:56:12;;;;;;;;;;;6.40;99.90;;;;;;5056273;28;19912;-69
2022/11/05 11:58:39;;;;;;;;;;;6.50;99.90;;;;;;5055653;28;19909;-69
2022/11/05 12:01:12;;;;;;;;;;;6.50;99.90;;;;;;5038555;28;19915;-68
2022/11/05 12:03:43;;;;;;;;;;;6.60;99.90;;;;;;5056321;28;19909;-70
2022/11/05 12:06:18;;;;;;;;;;;6.60;99.90;;;;;;5037694;28;19908;-70
2022/11/05 12:08:55;;;;;;;;;;;6.60;99.90;;;;;;5055765;28;19908;-71
2022/11/05 12:11:33;;;;;;;;;;;6.60;99.90;;;;;;5055435;28;19909;-69
2022/11/05 12:14:18;;;;;;;;;;;6.60;99.90;;;;;;5055117;28;19924;-70
2022/11/05 12:16:53;;;;;;;;;;;6.60;99.90;;;;;;5037450;28;19909;-70
2022/11/05 12:19:38;;;;;;;;;;;6.70;99.90;;;;;;5055298;28;19916;-70
2022/11/05 12:22:04;;;;;;;;;;;6.70;99.90;;;;;;5054238;28;20320;-70
2022/11/05 12:24:45;;;;;;;;;;;6.70;99.90;;;;;;5055137;28;19909;-70
2022/11/05 12:27:29;;;;;;;;;;;6.70;99.90;;;;;;5055618;28;20380;-70
2022/11/05 12:30:10;;;;;;;;;;;6.70;99.90;;;;;;5054159;28;19940;-70
2022/11/05 12:32:59;;;;;;;;;;;6.70;99.90;;;;;;5035194;28;20018;-70
2022/11/05 12:35:43;;;;;;;;;;;6.70;99.90;;;;;;5021867;28;19960;-71
2022/11/05 12:38:35;;;;;;;;;;;6.70;99.90;;;;;;5035317;28;20266;-70
2022/11/05 12:41:19;;;;;;;;;;;6.70;99.90;;;;;;5017490;28;20350;-70
2022/11/05 12:43:45;;;;;;;;;;;6.80;99.90;;;;;;5035096;28;19916;-71
2022/11/05 12:46:10;;;;;;;;;;;6.80;99.90;;;;;;5035410;28;19909;-70
2022/11/05 12:48:39;;;;;;;;;;;6.70;99.90;;;;;;5034819;28;20096;-70
2022/11/05 12:51:15;;;;;;;;;;;6.70;99.90;;;;;;5035375;28;19916;-71
2022/11/05 12:53:55;;;;;;;;;;;6.70;99.90;;;;;;5034851;28;19963;-70
2022/11/05 12:56:25;;;;;;;;;;;6.70;99.90;;;;;;5035411;28;19948;-70
2022/11/05 12:58:56;;;;;;;;;;;6.70;99.90;;;;;;5034765;28;19956;-70
2022/11/05 13:01:37;;;;;;;;;;;6.70;99.90;;;;;;5034492;28;19910;-70
2022/11/05 13:04:07;;;;;;;;;;;6.70;99.90;;;;;;5034477;28;19909;-70
2022/11/05 13:06:39;;;;;;;;;;;6.70;99.90;;;;;;5034478;28;20286;-70
2022/11/05 13:09:04;;;;;;;;;;;6.70;99.90;;;;;;5034714;28;19932;-69
2022/11/05 13:11:42;;;;;;;;;;;6.60;99.90;;;;;;5054249;28;20424;-71
2022/11/05 13:14:16;;;;;;;;;;;6.70;99.90;;;;;;5034625;28;19939;-69
2022/11/05 13:17:00;;;;;;;;;;;6.70;99.90;;;;;;5052057;28;20455;-70
2022/11/05 13:19:28;;;;;;;;;;;6.70;99.90;;;;;;5034495;28;20011;-70
2022/11/05 13:22:10;;;;;;;;;;;6.70;99.90;;;;;;5053043;28;19909;-69
2022/11/05 13:24:44;;;;;;;;;;;6.70;99.90;;;;;;5053750;28;20381;-70
2022/11/05 13:27:10;;;;;;;;;;;6.70;99.90;;;;;;5054365;28;19916;-70
2022/11/05 13:29:57;;;;;;;;;;;6.70;99.90;;;;;;5053979;28;19912;-70
2022/11/05 13:32:31;;;;;;;;;;;6.70;99.90;;;;;;5053901;28;19909;-70
2022/11/05 13:34:58;;;;;;;;;;;6.70;99.90;;;;;;5053738;28;19917;-70
2022/11/05 13:40:15;;;;;;;;;;;6.70;99.90;;;;;;5054401;28;19915;-72
2022/11/05 13:42:41;;;;;;;;;;;6.60;99.90;;;;;;5054001;28;19991;-70
2022/11/05 13:45:12;;;;;;;;;;;6.60;99.90;;;;;;5053716;28;19955;-70
2022/11/05 13:48:04;;;;;;;;;;;6.70;99.90;;;;;;5053670;28;19958;-70
2022/11/05 13:50:48;;;;;;;;;;;6.60;99.90;;;;;;5053638;28;19909;-70
2022/11/05 13:53:32;;;;;;;;;;;6.60;99.90;;;;;;5053722;28;19952;-70
2022/11/05 13:56:01;;;;;;;;;;;6.70;99.90;;;;;;5053590;28;19909;-70
2022/11/05 13:58:42;;;;;;;;;;;6.70;99.90;;;;;;5053541;28;20007;-69
2022/11/05 14:01:37;;;;;;;;;;;6.70;99.90;;;;;;5053547;28;19908;-70
2022/11/05 14:04:03;;;;;;;;;;;6.70;99.90;;;;;;5040294;28;19916;-71
2022/11/05 14:06:31;;;;;;;;;;;6.70;99.90;;;;;;5053770;28;19917;-70
2022/11/05 14:08:59;;;;;;;;;;;6.70;99.90;;;;;;5053397;28;20004;-70
2022/11/05 14:11:27;;;;;;;;;;;6.70;99.90;;;;;;5053376;28;19909;-70
2022/11/05 14:13:57;;;;;;;;;;;6.70;99.90;;;;;;5053162;28;19924;-70
2022/11/05 14:16:24;;;;;;;;;;;6.80;99.90;;;;;;5053321;28;20384;-71
2022/11/05 14:19:08;;;;;;;;;;;6.80;99.90;;;;;;5035470;28;19908;-71
2022/11/05 14:21:47;;;;;;;;;;;6.70;99.90;;;;;;5053283;28;19916;-70
2022/11/05 14:24:21;;;;;;;;;;;6.70;99.90;;;;;;5053173;28;20328;-71
2022/11/05 14:26:59;;;;;;;;;;;6.70;99.90;;;;;;5053233;28;20395;-70
2022/11/05 14:29:35;;;;;;;;;;;6.70;99.90;;;;;;5053155;28;20254;-70
2022/11/05 14:32:02;;;;;;;;;;;6.70;99.90;;;;;;5053623;28;19909;-70
2022/11/05 14:34:42;;;;;;;;;;;6.70;99.90;;;;;;5053137;28;19912;-70
2022/11/05 14:37:11;;;;;;;;;;;6.60;99.90;;;;;;5051810;28;20344;-69
2022/11/05 14:39:37;;;;;;;;;;;6.60;99.90;;;;;;5052982;28;19913;-70
2022/11/05 14:42:18;;;;;;;;;;;6.60;99.90;;;;;;5053225;28;20004;-70
2022/11/05 14:44:56;;;;;;;;;;;6.60;99.90;;;;;;5053995;28;19916;-70
2022/11/05 14:47:23;;;;;;;;;;;6.60;99.90;;;;;;5056975;28;19934;-70
2022/11/05 14:49:51;;;;;;;;;;;6.60;99.90;;;;;;5057195;28;19909;-70
2022/11/05 14:52:18;;;;;;;;;;;6.60;99.90;;;;;;5056774;28;21513;-69
2022/11/05 14:54:54;;;;;;;;;;;6.60;99.90;;;;;;5038832;28;20016;-70
2022/11/05 14:57:38;;;;;;;;;;;6.60;99.90;;;;;;5057111;28;19909;-70
2022/11/05 15:00:24;;;;;;;;;;;6.60;99.90;;;;;;5038776;28;19909;-70
2022/11/05 15:02:55;;;;;;;;;;;6.60;99.90;;;;;;5038607;28;20419;-70
2022/11/05 15:05:30;;;;;;;;;;;6.50;99.90;;;;;;5056632;28;19929;-70
2022/11/05 15:07:58;;;;;;;;;;;6.50;99.90;;;;;;5056860;28;19909;-71
2022/11/05 15:10:34;;;;;;;;;;;6.50;99.90;;;;;;5022251;28;19920;-70
2022/11/05 15:13:05;;;;;;;;;;;6.50;99.90;;;;;;5038347;28;19921;-70
2022/11/05 15:15:37;;;;;;;;;;;6.60;99.90;;;;;;5056462;28;19909;-70
2022/11/05 15:18:09;;;;;;;;;;;6.50;99.90;;;;;;5056469;28;20353;-69
2022/11/05 15:20:40;;;;;;;;;;;6.50;99.90;;;;;;5056484;28;19908;-70
2022/11/05 15:23:08;;;;;;;;;;;6.50;99.90;;;;;;5056589;28;19909;-70
2022/11/05 15:25:41;;;;;;;;;;;6.50;99.90;;;;;;5056594;28;20312;-70
2022/11/05 15:28:27;;;;;;;;;;;6.50;99.90;;;;;;5038990;28;19919;-71